createdAt,value
2018-12-14T00:02:00.369Z,23.50
2018-12-14T00:04:28.240Z,25.33
2018-12-14T00:06:56.148Z,17.57
2018-12-14T00:09:24.015Z,23.60
2018-12-14T00:11:52.040Z,19.20
2018-12-14T00:14:19.969Z,20.57
2018-12-14T00:16:48.388Z,20.97
2018-12-14T00:19:16.458Z,20.90
2018-12-14T00:21:44.167Z,19.43
2018-12-14T00:24:12.308Z,17.67
2018-12-14T00:26:40.248Z,18.53
2018-12-14T00:29:09.964Z,20.43
2018-12-14T00:31:37.907Z,19.17
2018-12-14T00:34:06.671Z,17.70
2018-12-14T00:36:37.258Z,18.70
2018-12-14T00:39:05.727Z,18.00
2018-12-14T00:41:33.667Z,19.33
2018-12-14T00:44:01.858Z,20.60
2018-12-14T00:46:29.953Z,17.43
2018-12-14T00:48:58.014Z,17.27
2018-12-14T00:51:26.096Z,19.53
2018-12-14T00:53:54.020Z,17.00
2018-12-14T00:56:22.034Z,16.87
2018-12-14T00:58:50.077Z,19.40
2018-12-14T01:01:18.242Z,20.10
2018-12-14T01:03:46.108Z,20.23
2018-12-14T01:06:13.971Z,22.13
2018-12-14T01:08:41.963Z,19.67
2018-12-14T01:11:10.052Z,22.90
2018-12-14T01:13:38.095Z,20.00
2018-12-14T01:16:06.786Z,23.23
2018-12-14T01:18:34.726Z,20.10
2018-12-14T01:21:02.594Z,17.00
2018-12-14T01:23:30.458Z,18.60
2018-12-14T01:25:58.324Z,16.53
2018-12-14T01:28:26.215Z,18.27
2018-12-14T01:30:54.180Z,16.70
2018-12-14T01:33:22.146Z,15.60
2018-12-14T01:35:50.012Z,18.27
2018-12-14T01:38:17.877Z,20.53
2018-12-14T01:40:45.743Z,15.80
2018-12-14T01:43:13.734Z,19.57
2018-12-14T01:45:41.674Z,18.13
2018-12-14T01:48:09.984Z,22.83
2018-12-14T01:50:38.210Z,18.30
2018-12-14T01:53:06.445Z,19.43
2018-12-14T01:55:34.413Z,16.30
2018-12-14T01:58:02.383Z,19.50
2018-12-14T02:00:30.094Z,15.83
2018-12-14T02:02:58.283Z,17.13
2018-12-14T02:05:26.376Z,20.83
2018-12-14T02:07:54.315Z,18.13
2018-12-14T02:10:22.181Z,16.97
2018-12-14T02:12:50.371Z,20.67
2018-12-14T02:15:18.472Z,17.27
2018-12-14T02:17:46.453Z,18.83
2018-12-14T02:20:14.397Z,16.40
2018-12-14T02:22:42.691Z,18.50
2018-12-14T02:25:10.724Z,19.60
2018-12-14T02:27:38.815Z,17.03
2018-12-14T02:30:18.655Z,17.87
2018-12-14T02:32:46.506Z,19.37
2018-12-14T02:35:14.362Z,20.80
2018-12-14T02:37:42.228Z,22.30
2018-12-14T02:40:10.247Z,17.90
2018-12-14T02:42:38.284Z,26.77
2018-12-14T02:45:06.674Z,23.87
2018-12-14T02:47:34.664Z,22.97
2018-12-14T02:50:02.406Z,27.60
2018-12-14T02:52:30.247Z,20.77
2018-12-14T02:54:58.364Z,23.33
2018-12-14T02:57:26.744Z,20.37
2018-12-14T02:59:54.468Z,19.57
2018-12-14T03:02:22.661Z,21.97
2018-12-14T03:04:50.625Z,21.80
2018-12-14T03:07:18.590Z,21.97
2018-12-14T03:09:46.530Z,23.20
2018-12-14T03:12:14.397Z,23.20
2018-12-14T03:14:42.262Z,25.77
2018-12-14T03:17:10.496Z,26.23
2018-12-14T03:19:38.566Z,23.70
2018-12-14T03:22:06.637Z,27.30
2018-12-14T03:24:34.675Z,21.93
2018-12-14T03:27:02.644Z,24.47
2018-12-14T03:29:30.648Z,24.27
2018-12-14T03:31:58.582Z,25.60
2018-12-14T03:34:26.587Z,24.90
2018-12-14T03:36:54.554Z,23.20
2018-12-14T03:39:22.419Z,21.17
2018-12-14T03:41:50.389Z,19.63
2018-12-14T03:44:18.377Z,21.77
2018-12-14T03:46:46.521Z,22.67
2018-12-14T03:49:14.607Z,22.57
2018-12-14T03:51:42.648Z,23.40
2018-12-14T03:54:10.750Z,22.77
2018-12-14T03:56:38.779Z,23.57
2018-12-14T03:59:06.890Z,25.57
2018-12-14T04:01:34.812Z,23.60
2018-12-14T04:04:02.827Z,29.87
2018-12-14T04:06:30.818Z,28.27
2018-12-14T04:08:58.735Z,26.47
2018-12-14T04:11:26.699Z,26.53
2018-12-14T04:13:54.691Z,30.20
2018-12-14T04:16:22.630Z,24.27
2018-12-14T04:18:50.822Z,25.40
2018-12-14T04:21:19.087Z,26.03
2018-12-14T04:23:47.051Z,24.27
2018-12-14T04:26:14.917Z,27.90
2018-12-14T04:28:42.782Z,30.93
2018-12-14T04:31:10.649Z,24.90
2018-12-14T04:33:38.689Z,28.73
2018-12-14T04:36:06.709Z,28.97
2018-12-14T04:38:34.646Z,31.03
2018-12-14T04:41:02.636Z,30.13
2018-12-14T04:43:30.738Z,24.43
2018-12-14T04:45:58.470Z,28.07
2018-12-14T04:48:26.333Z,24.67
2018-12-14T04:50:54.324Z,26.03
2018-12-14T04:53:22.410Z,23.60
2018-12-14T04:55:50.454Z,23.67
2018-12-14T04:58:18.553Z,25.47
2018-12-14T05:00:46.586Z,26.40
2018-12-14T05:03:14.695Z,21.17
2018-12-14T05:05:42.543Z,21.90
2018-12-14T05:08:10.529Z,21.23
2018-12-14T05:10:38.473Z,22.03
2018-12-14T05:13:06.415Z,22.40
2018-12-14T05:15:34.281Z,25.67
2018-12-14T05:18:02.271Z,27.83
2018-12-14T05:20:30.236Z,23.07
2018-12-14T05:22:58.651Z,21.73
2018-12-14T05:25:26.642Z,21.10
2018-12-14T05:27:55.198Z,19.37
2018-12-14T05:30:23.049Z,19.83
2018-12-14T05:32:51.140Z,23.50
2018-12-14T05:35:19.180Z,26.17
2018-12-14T05:37:47.246Z,21.03
2018-12-14T05:40:15.211Z,21.17
2018-12-14T05:42:43.221Z,20.17
2018-12-14T05:45:11.089Z,22.53
2018-12-14T05:47:39.159Z,22.40
2018-12-14T05:50:07.375Z,20.30
2018-12-14T05:52:35.443Z,24.40
2018-12-14T05:55:03.875Z,24.10
2018-12-14T05:57:31.820Z,25.63
2018-12-14T05:59:59.785Z,26.03
2018-12-14T06:02:27.792Z,26.87
2018-12-14T06:04:55.843Z,26.73
2018-12-14T06:07:23.934Z,27.60
2018-12-14T06:09:51.975Z,26.70
2018-12-14T06:12:20.215Z,27.87
2018-12-14T06:14:48.655Z,27.33
2018-12-14T06:17:16.670Z,30.63
2018-12-14T06:19:44.557Z,31.53
2018-12-14T06:22:12.976Z,31.80
2018-12-14T06:24:40.738Z,31.27
2018-12-14T06:27:08.682Z,30.83
2018-12-14T06:29:36.781Z,36.57
2018-12-14T06:32:04.814Z,28.43
2018-12-14T06:34:32.783Z,34.83
2018-12-14T06:37:00.950Z,43.03
2018-12-14T06:39:29.067Z,36.50
2018-12-14T06:41:57.957Z,36.53
2018-12-14T06:44:25.994Z,41.60
2018-12-14T06:46:53.958Z,39.37
2018-12-14T06:49:21.823Z,34.13
2018-12-14T06:51:49.689Z,40.40
2018-12-14T06:54:17.555Z,36.90
2018-12-14T06:56:45.459Z,42.27
2018-12-14T06:59:13.611Z,44.67
2018-12-14T07:01:41.706Z,44.53
2018-12-14T07:04:09.818Z,40.53
2018-12-14T07:06:37.833Z,34.87
2018-12-14T07:09:06.739Z,36.53
2018-12-14T07:11:34.795Z,37.07
2018-12-14T07:14:03.652Z,40.90
2018-12-14T07:16:32.495Z,36.47
2018-12-14T07:19:00.661Z,40.40
2018-12-14T07:21:28.576Z,43.60
2018-12-14T07:23:56.567Z,35.73
2018-12-14T07:26:24.464Z,41.00
2018-12-14T07:28:52.944Z,40.77
2018-12-14T07:31:20.665Z,38.67
2018-12-14T07:33:48.655Z,36.60
2018-12-14T07:36:16.747Z,36.63
2018-12-14T07:38:48.131Z,39.90
2018-12-14T07:41:14.577Z,41.70
2018-12-14T07:43:42.567Z,39.80
2018-12-14T07:46:10.533Z,41.60
2018-12-14T07:48:38.724Z,48.10
2018-12-14T07:51:06.664Z,33.50
2018-12-14T07:53:34.655Z,39.50
2018-12-14T07:56:02.756Z,32.87
2018-12-14T07:58:30.736Z,35.60
2018-12-14T08:00:59.152Z,37.27
2018-12-14T08:03:27.144Z,41.10
2018-12-14T08:05:55.109Z,35.50
2018-12-14T08:08:23.100Z,36.77
2018-12-14T08:10:51.040Z,36.23
2018-12-14T08:13:19.529Z,36.00
2018-12-14T08:15:47.736Z,41.67
2018-12-14T08:18:15.499Z,36.37
2018-12-14T08:20:43.334Z,35.23
2018-12-14T08:23:11.498Z,40.13
2018-12-14T08:25:39.613Z,37.70
2018-12-14T08:28:07.576Z,36.97
2018-12-14T08:30:35.443Z,39.23
2018-12-14T08:33:03.406Z,32.83
2018-12-14T08:35:31.347Z,34.67
2018-12-14T08:37:59.413Z,39.17
2018-12-14T08:40:27.425Z,37.90
2018-12-14T08:42:55.496Z,36.90
2018-12-14T08:45:23.462Z,40.60
2018-12-14T08:47:51.844Z,32.97
2018-12-14T08:50:19.710Z,36.60
2018-12-14T08:52:47.631Z,36.53
2018-12-14T08:55:15.498Z,34.47
2018-12-14T08:57:43.515Z,42.30
2018-12-14T09:00:11.853Z,37.77
2018-12-14T09:02:40.320Z,38.90
2018-12-14T09:05:08.188Z,38.60
2018-12-14T09:07:36.327Z,41.80
2018-12-14T09:10:05.568Z,41.10
2018-12-14T09:12:33.558Z,39.60
2018-12-14T09:15:01.721Z,34.10
2018-12-14T09:17:29.564Z,39.30
2018-12-14T09:19:57.455Z,41.87
2018-12-14T09:22:25.420Z,35.37
2018-12-14T09:24:53.513Z,37.33
2018-12-14T09:27:21.599Z,35.80
2018-12-14T09:29:49.642Z,38.07
2018-12-14T09:32:17.858Z,34.57
2018-12-14T09:34:46.001Z,38.63
2018-12-14T09:37:13.939Z,32.70
2018-12-14T09:39:41.934Z,36.60
2018-12-14T09:42:10.030Z,35.40
2018-12-14T09:44:38.012Z,34.53
2018-12-14T09:47:05.956Z,37.20
2018-12-14T09:49:33.892Z,36.47
2018-12-14T09:52:01.759Z,33.17
2018-12-14T09:54:29.624Z,33.60
2018-12-14T09:56:57.491Z,34.10
2018-12-14T09:59:25.502Z,31.10
2018-12-14T10:01:53.572Z,29.60
2018-12-14T10:04:21.486Z,32.33
2018-12-14T10:06:49.408Z,37.13
2018-12-14T10:09:17.377Z,31.10
2018-12-14T10:11:45.385Z,30.87
2018-12-14T10:14:13.520Z,31.97
2018-12-14T10:16:41.593Z,31.00
2018-12-14T10:19:09.706Z,30.93
2018-12-14T10:21:38.347Z,34.33
2018-12-14T10:24:06.263Z,28.50
2018-12-14T10:26:34.128Z,30.57
2018-12-14T10:29:02.153Z,29.67
2018-12-14T10:31:30.162Z,31.93
2018-12-14T10:33:58.151Z,26.80
2018-12-14T10:36:26.342Z,26.53
2018-12-14T10:38:54.281Z,26.17
2018-12-14T10:41:22.176Z,30.30
2018-12-14T10:43:50.013Z,25.47
2018-12-14T10:46:17.933Z,27.20
2018-12-14T10:48:45.796Z,38.43
2018-12-14T10:51:13.759Z,24.40
2018-12-14T10:53:42.024Z,27.37
2018-12-14T10:56:09.990Z,28.90
2018-12-14T10:58:37.857Z,25.97
2018-12-14T11:04:09.002Z,24.70
2018-12-14T11:06:36.993Z,28.13
2018-12-14T11:09:06.151Z,27.53
2018-12-14T11:11:34.180Z,30.53
2018-12-14T11:14:02.214Z,26.07
2018-12-14T11:16:30.179Z,29.47
2018-12-14T11:18:58.045Z,24.97
2018-12-14T11:21:25.911Z,23.97
2018-12-14T11:23:53.777Z,27.00
2018-12-14T11:26:21.644Z,25.77
2018-12-14T11:28:49.655Z,26.10
2018-12-14T11:31:17.656Z,28.37
2018-12-14T11:33:45.800Z,27.03
2018-12-14T11:36:14.030Z,25.97
2018-12-14T11:38:42.747Z,25.47
2018-12-14T11:41:11.012Z,30.60
2018-12-14T11:43:39.080Z,27.10
2018-12-14T11:46:07.020Z,36.23
2018-12-14T11:48:34.886Z,28.17
2018-12-14T11:51:02.876Z,26.17
2018-12-14T11:53:30.983Z,24.30
2018-12-14T11:55:59.874Z,23.73
2018-12-14T11:58:27.598Z,25.70
2018-12-14T12:00:55.606Z,26.90
2018-12-14T12:03:23.604Z,26.40
2018-12-14T12:05:51.719Z,23.40
2018-12-14T12:08:19.885Z,26.53
2018-12-14T12:10:47.877Z,22.63
2018-12-14T12:13:15.961Z,23.20
2018-12-14T12:15:43.981Z,26.03
2018-12-14T12:18:11.948Z,24.77
2018-12-14T12:20:39.812Z,24.50
2018-12-14T12:23:07.677Z,24.23
2018-12-14T12:25:35.546Z,24.47
2018-12-14T12:28:03.409Z,22.67
2018-12-14T12:30:31.435Z,20.50
2018-12-14T12:32:59.567Z,22.20
2018-12-14T12:35:28.181Z,27.67
2018-12-14T12:37:56.122Z,20.00
2018-12-14T12:40:23.987Z,20.40
2018-12-14T12:42:51.853Z,21.50
2018-12-14T12:45:20.287Z,22.53
2018-12-14T12:47:48.550Z,18.57
2018-12-14T12:50:16.622Z,25.20
2018-12-14T12:52:44.665Z,21.47
2018-12-14T12:55:12.764Z,22.17
2018-12-14T12:57:40.822Z,23.43
2018-12-14T13:00:08.763Z,19.37
2018-12-14T13:02:36.627Z,22.17
2018-12-14T13:05:04.844Z,19.30
2018-12-14T13:07:32.835Z,24.83
2018-12-14T13:10:00.749Z,21.80
2018-12-14T13:12:28.692Z,19.97
2018-12-14T13:14:56.682Z,18.53
2018-12-14T13:17:24.791Z,17.43
2018-12-14T13:19:52.658Z,23.50
2018-12-14T13:22:20.703Z,19.67
2018-12-14T13:24:48.592Z,23.73
2018-12-14T13:27:20.292Z,18.37
2018-12-14T13:29:46.576Z,21.77
2018-12-14T13:32:14.516Z,18.23
2018-12-14T13:34:43.132Z,19.37
2018-12-14T13:37:11.397Z,20.23
2018-12-14T13:39:39.343Z,16.13
2018-12-14T13:42:07.206Z,18.93
2018-12-14T13:44:35.252Z,17.77
2018-12-14T13:47:03.145Z,13.80
2018-12-14T13:49:31.325Z,20.73
2018-12-14T13:51:59.266Z,13.90
2018-12-14T13:54:27.909Z,17.43
2018-12-14T13:56:56.148Z,17.93
2018-12-14T13:59:24.255Z,18.43
2018-12-14T14:01:52.254Z,21.17
2018-12-14T14:04:20.398Z,20.00
2018-12-14T14:06:48.385Z,15.30
2018-12-14T14:09:16.300Z,15.87
2018-12-14T14:11:44.267Z,13.67
2018-12-14T14:14:12.275Z,16.10
2018-12-14T14:16:40.322Z,16.10
2018-12-14T14:19:08.264Z,16.70
2018-12-14T14:21:36.129Z,16.00
2018-12-14T14:24:03.996Z,15.80
2018-12-14T14:26:32.810Z,15.97
2018-12-14T14:29:00.906Z,17.40
2018-12-14T14:31:28.968Z,17.80
2018-12-14T14:33:56.948Z,18.03
2018-12-14T14:36:24.917Z,15.40
2018-12-14T14:38:53.039Z,20.10
2018-12-14T14:41:20.910Z,20.67
2018-12-14T14:43:48.770Z,22.67
2018-12-14T14:46:17.202Z,23.73
2018-12-14T14:48:45.066Z,21.43
2018-12-14T14:51:13.139Z,26.77
2018-12-14T14:53:41.210Z,31.70
2018-12-14T14:56:09.224Z,28.80
2018-12-14T14:58:37.189Z,29.93
2018-12-14T15:01:05.206Z,30.90
2018-12-14T15:03:33.573Z,37.50
2018-12-14T15:06:01.711Z,33.33
2018-12-14T15:08:29.702Z,33.07
2018-12-14T15:10:57.693Z,34.57
2018-12-14T15:13:27.683Z,36.10
2018-12-14T15:15:55.697Z,36.43
2018-12-14T15:18:23.740Z,38.30
2018-12-14T15:20:51.838Z,37.77
2018-12-14T15:23:19.871Z,37.50
2018-12-14T15:25:47.836Z,36.57
2018-12-14T15:28:15.702Z,38.77
2018-12-14T15:30:44.292Z,38.30
2018-12-14T15:33:12.259Z,40.90
2018-12-14T15:35:40.124Z,39.77
2018-12-14T15:38:08.815Z,35.77
2018-12-14T15:40:36.880Z,39.00
2018-12-14T15:43:05.075Z,40.70
2018-12-14T15:45:33.370Z,40.67
2018-12-14T15:48:01.603Z,41.63
2018-12-14T15:50:29.695Z,36.47
2018-12-14T15:52:57.788Z,39.43
2018-12-14T15:55:25.524Z,37.53
2018-12-14T15:57:53.491Z,37.33
2018-12-14T16:00:21.580Z,37.33
2018-12-14T16:02:49.332Z,37.23
2018-12-14T16:05:16.984Z,37.83
2018-12-14T16:07:44.762Z,42.23
2018-12-14T16:10:12.500Z,42.17
2018-12-14T16:12:40.237Z,38.93
2018-12-14T16:15:08.458Z,45.53
2018-12-14T16:17:36.367Z,39.30
2018-12-14T16:20:05.893Z,42.13
2018-12-14T16:22:33.605Z,43.37
2018-12-14T16:25:01.282Z,41.77
2018-12-14T16:27:28.967Z,48.63
2018-12-14T16:29:56.621Z,49.00
2018-12-14T16:32:24.316Z,47.03
2018-12-14T16:34:51.960Z,41.20
2018-12-14T16:37:19.635Z,43.57
2018-12-14T16:39:47.289Z,42.00
2018-12-14T16:42:14.979Z,45.23
2018-12-14T16:44:42.700Z,44.87
2018-12-14T16:47:10.414Z,43.20
2018-12-14T16:49:38.064Z,48.73
2018-12-14T16:52:05.834Z,43.20
2018-12-14T16:54:33.575Z,45.33
2018-12-14T16:57:01.767Z,43.20
2018-12-14T16:59:29.735Z,45.90
2018-12-14T17:01:57.599Z,44.67
2018-12-14T17:04:26.196Z,48.17
2018-12-14T17:06:54.479Z,47.47
2018-12-14T17:09:22.571Z,44.70
2018-12-14T17:11:50.610Z,42.57
2018-12-14T17:14:18.904Z,46.27
2018-12-14T17:16:46.841Z,46.90
2018-12-14T17:19:14.708Z,43.57
2018-12-14T17:21:42.575Z,47.53
2018-12-14T17:24:10.439Z,41.90
2018-12-14T17:26:38.305Z,51.27
2018-12-14T17:29:06.321Z,49.90
2018-12-14T17:31:34.396Z,44.50
2018-12-14T17:34:02.304Z,42.77
2018-12-14T17:36:30.243Z,44.63
2018-12-14T17:38:58.258Z,47.33
2018-12-14T17:41:26.271Z,51.07
2018-12-14T17:43:54.191Z,47.10
2018-12-14T17:46:22.330Z,44.07
2018-12-14T17:48:50.446Z,50.13
2018-12-14T17:51:18.413Z,50.57
2018-12-14T17:53:46.402Z,47.20
2018-12-14T17:56:14.343Z,47.70
2018-12-14T17:58:42.959Z,50.27
2018-12-14T18:01:11.028Z,46.57
2018-12-14T18:03:39.216Z,44.93
2018-12-14T18:06:07.157Z,47.50
2018-12-14T18:08:35.221Z,44.47
2018-12-14T18:11:03.187Z,46.73
2018-12-14T18:13:31.052Z,52.13
2018-12-14T18:15:58.917Z,50.40
2018-12-14T18:18:26.927Z,48.20
2018-12-14T18:20:54.848Z,55.20
2018-12-14T18:23:22.990Z,48.87
2018-12-14T18:25:50.904Z,47.97
2018-12-14T18:28:19.009Z,49.53
2018-12-14T18:30:46.987Z,51.70
2018-12-14T18:33:15.127Z,49.43
2018-12-14T18:35:43.223Z,47.47
2018-12-14T18:38:11.296Z,52.17
2018-12-14T18:40:39.224Z,50.03
2018-12-14T18:43:07.093Z,42.10
2018-12-14T18:45:34.894Z,49.27
2018-12-14T18:48:02.821Z,46.47
2018-12-14T18:50:30.813Z,53.70
2018-12-14T18:52:58.752Z,45.90
2018-12-14T18:55:26.643Z,48.97
2018-12-14T18:57:54.510Z,48.47
2018-12-14T19:00:22.354Z,50.63
2018-12-14T19:02:50.215Z,52.20
2018-12-14T19:05:18.156Z,51.43
2018-12-14T19:07:46.022Z,45.90
2018-12-14T19:10:13.937Z,54.27
2018-12-14T19:12:42.028Z,45.37
2018-12-14T19:15:10.527Z,49.33
2018-12-14T19:17:39.188Z,43.07
2018-12-14T19:20:07.126Z,52.07
2018-12-14T19:22:34.991Z,52.10
2018-12-14T19:25:02.982Z,50.27
2018-12-14T19:27:30.925Z,51.97
2018-12-14T19:29:58.814Z,48.77
2018-12-14T19:32:27.079Z,54.00
2018-12-14T19:34:55.092Z,55.53
2018-12-14T19:37:23.137Z,51.37
2018-12-14T19:39:51.238Z,59.77
2018-12-14T19:42:19.204Z,50.50
2018-12-14T19:44:47.158Z,49.00
2018-12-14T19:47:15.273Z,52.07
2018-12-14T19:49:43.389Z,49.30
2018-12-14T19:52:11.696Z,52.70
2018-12-14T19:54:40.173Z,51.43
2018-12-14T19:57:08.335Z,51.17
2018-12-14T19:59:36.301Z,51.30
2018-12-14T20:02:04.389Z,53.00
2018-12-14T20:04:32.408Z,51.10
2018-12-14T20:07:00.723Z,47.97
2018-12-14T20:09:29.490Z,49.97
2018-12-14T20:11:57.582Z,56.83
2018-12-14T20:14:25.650Z,67.20
2018-12-14T20:16:54.351Z,67.37
2018-12-14T20:19:22.219Z,59.20
2018-12-14T20:21:50.085Z,59.50
2018-12-14T20:24:18.082Z,59.37
2018-12-14T20:26:45.919Z,51.87
2018-12-14T20:29:13.939Z,60.00
2018-12-14T20:31:42.078Z,60.30
2018-12-14T20:34:10.440Z,56.20
2018-12-14T20:36:38.717Z,53.53
2018-12-14T20:39:07.495Z,52.97
2018-12-14T20:41:36.143Z,52.93
2018-12-14T20:44:04.633Z,57.67
2018-12-14T20:46:32.598Z,53.30
2018-12-14T20:49:00.788Z,53.90
2018-12-14T20:51:29.089Z,56.33
2018-12-14T20:53:57.160Z,53.27
2018-12-14T20:56:25.129Z,52.37
2018-12-14T20:58:53.303Z,57.27
2018-12-14T21:01:21.042Z,55.10
2018-12-14T21:03:49.308Z,55.90
2018-12-14T21:06:17.233Z,56.20
2018-12-14T21:08:45.365Z,52.80
2018-12-14T21:11:13.455Z,49.03
2018-12-14T21:13:41.527Z,55.20
2018-12-14T21:16:09.561Z,53.90
2018-12-14T21:18:37.873Z,56.00
2018-12-14T21:21:06.150Z,52.87
2018-12-14T21:23:34.208Z,54.10
2018-12-14T21:26:02.148Z,54.33
2018-12-14T21:28:30.363Z,55.53
2018-12-14T21:30:58.334Z,55.77
2018-12-14T21:33:26.175Z,54.73
2018-12-14T21:35:54.010Z,50.90
2018-12-14T21:38:22.128Z,54.23
2018-12-14T21:40:50.068Z,56.23
2018-12-14T21:43:18.176Z,56.83
2018-12-14T21:45:46.098Z,53.27
2018-12-14T21:48:13.964Z,55.13
2018-12-14T21:50:41.856Z,51.90
2018-12-14T21:53:14.413Z,50.27
2018-12-14T21:55:39.962Z,51.70
2018-12-14T21:58:08.576Z,48.20
2018-12-14T22:00:36.570Z,54.33
2018-12-14T22:03:04.908Z,55.03
2018-12-14T22:05:32.849Z,45.60
2018-12-14T22:08:00.789Z,46.70
2018-12-14T22:10:28.599Z,48.63
2018-12-14T22:12:56.846Z,48.17
2018-12-14T22:15:24.811Z,48.37
2018-12-14T22:17:52.710Z,50.43
2018-12-14T22:20:20.518Z,49.27
2018-12-14T22:22:48.459Z,49.57
2018-12-14T22:25:16.326Z,51.50
2018-12-14T22:27:44.465Z,44.03
2018-12-14T22:30:12.412Z,46.57
2018-12-14T22:32:40.596Z,44.97
2018-12-14T22:35:08.536Z,47.80
2018-12-14T22:37:36.477Z,48.37
2018-12-14T22:40:04.841Z,45.40
2018-12-14T22:42:32.886Z,48.50
2018-12-14T22:45:01.050Z,45.23
2018-12-14T22:47:29.016Z,45.80
2018-12-14T22:49:57.005Z,49.40
2018-12-14T22:52:24.947Z,43.47
2018-12-14T22:54:52.812Z,45.40
2018-12-14T22:57:20.678Z,45.63
2018-12-14T22:59:48.594Z,47.23
2018-12-14T23:02:16.734Z,44.97
2018-12-14T23:04:44.698Z,45.63
2018-12-14T23:07:12.567Z,46.03
2018-12-14T23:09:40.775Z,46.50
2018-12-14T23:12:08.823Z,46.93
2018-12-14T23:14:36.918Z,47.20
2018-12-14T23:17:05.378Z,47.67
2018-12-14T23:19:33.319Z,47.90
2018-12-14T23:22:01.237Z,48.10
2018-12-14T23:24:29.377Z,46.23
2018-12-14T23:26:57.363Z,45.00
2018-12-14T23:29:25.406Z,44.70
2018-12-14T23:31:53.272Z,44.23
2018-12-14T23:34:21.138Z,43.87
2018-12-14T23:36:49.149Z,44.87
2018-12-14T23:39:17.193Z,47.47
2018-12-14T23:41:45.291Z,48.70
2018-12-14T23:44:13.327Z,44.93
2018-12-14T23:46:41.294Z,42.03
2018-12-14T23:49:09.157Z,40.50
2018-12-14T23:51:37.579Z,43.10
2018-12-14T23:54:05.590Z,43.33
2018-12-14T23:56:33.803Z,44.50
2018-12-14T23:59:01.769Z,46.27
